Date,TemperatureHighF,TemperatureAvgF,TemperatureLowF,DewpointHighF,DewpointAvgF,DewpointLowF,HumidityHigh,HumidityAvg,HumidityLow,PressureMaxIn,PressureMinIn,WindSpeedMaxMPH,WindSpeedAvgMPH,GustSpeedMaxMPH,PrecipitationSumIn
2013-1-1,74,60,44,63,56,43,98,87,65,0.00,40.00,6,2,14,0.00
2013-1-2,68,63,57,66,60,53,97,89,72,0.00,40.00,3,2,11,0.04
2013-1-3,57,50,44,54,47,43,96,90,74,0.00,40.00,3,1,8,0.36
2013-1-4,56,45,38,44,40,36,96,84,57,0.00,40.00,2,1,7,0.02
2013-1-5,59,47,38,45,38,30,97,75,34,0.00,40.00,5,1,10,0.03
2013-1-6,55,50,46,46,45,42,95,83,67,0.00,40.00,3,1,7,0.07
2013-1-7,61,50,44,45,40,36,94,69,43,0.00,40.00,5,2,14,0.01
2013-1-8,72,59,49,60,51,44,94,76,62,0.00,40.00,6,3,12,0.00
2013-1-9,72,66,62,68,64,59,98,91,82,0.00,40.00,5,3,11,0.05
2013-1-10,79,69,60,67,64,59,98,85,59,0.00,40.00,7,4,16,0.05
2013-1-11,82,66,56,64,60,55,98,83,51,0.00,40.00,5,2,15,0.00
2013-1-12,78,64,53,66,59,52,98,87,58,0.00,40.00,6,2,13,0.00
2013-1-13,79,65,56,66,61,55,98,88,58,0.00,40.00,6,2,16,0.00
2013-1-14,80,68,58,66,62,57,98,84,53,0.00,40.00,5,2,15,0.00
2013-1-15,80,66,54,65,61,53,98,85,54,0.00,40.00,6,3,17,0.00
2013-1-16,78,70,64,68,65,63,97,87,68,0.00,40.00,6,3,15,0.00
2013-1-17,70,55,42,68,47,31,97,77,49,0.00,40.00,7,4,25,0.36
2013-1-18,63,47,35,38,34,28,94,65,29,0.00,40.00,6,3,19,0.01
2013-1-19,71,51,35,49,40,31,95,69,39,0.00,40.00,5,2,10,0.00
2013-1-20,73,54,43,50,46,42,96,77,39,0.00,40.00,3,1,8,0.00
2013-1-21,69,51,37,50,40,36,97,74,30,0.00,40.00,3,1,8,0.00
2013-1-22,63,47,32,42,32,24,93,61,24,0.00,40.00,3,1,10,0.00
2013-1-23,67,44,28,45,34,27,95,75,34,0.00,40.00,3,1,8,0.00
2013-1-24,74,52,37,54,44,36,97,79,35,0.00,40.00,5,1,13,0.00
2013-1-25,74,57,43,53,48,42,97,73,42,0.00,40.00,6,2,14,0.00
2013-1-26,79,60,45,59,52,44,97,79,46,0.00,40.00,4,1,11,0.00
2013-1-27,76,61,46,59,51,44,97,74,47,0.00,40.00,6,2,12,0.00
2013-1-28,76,63,54,62,56,51,97,80,61,0.00,40.00,5,3,14,0.00
2013-1-29,81,67,56,64,61,55,97,83,50,0.00,40.00,7,3,16,0.00
2013-1-30,75,68,55,68,62,43,97,83,64,0.00,40.00,10,5,27,0.28
2013-1-31,61,48,31,43,30,22,93,56,24,0.00,40.00,5,2,15,0.28
2013-2-1,64,42,28,37,31,27,95,72,31,0.00,40.00,3,1,10,0.00
2013-2-2,67,42,26,35,25,15,94,62,17,0.00,40.00,5,2,10,0.00
2013-2-3,71,50,34,45,34,24,96,64,18,0.00,40.00,4,1,13,0.00
2013-2-4,66,47,32,51,39,31,96,76,40,0.00,40.00,3,1,7,0.00
2013-2-5,65,56,46,60,54,45,97,93,81,0.00,40.00,4,1,7,0.15
2013-2-6,73,62,56,59,57,54,97,86,59,0.00,40.00,5,2,9,0.06
2013-2-7,70,62,55,68,60,54,97,92,86,0.00,40.00,7,3,18,0.31
2013-2-8,71,58,50,58,54,49,98,88,57,0.00,40.00,3,0,8,0.01
2013-2-9,69,54,41,55,43,34,97,73,27,0.00,40.00,4,2,11,0.00
2013-2-10,74,61,41,61,51,40,96,71,56,0.00,40.00,9,5,22,0.00
2013-2-11,79,69,63,67,64,58,97,82,64,0.00,40.00,5,3,15,0.29
2013-2-12,72,64,60,70,63,59,97,95,89,0.00,40.00,6,2,16,0.83
2013-2-13,75,68,49,70,60,47,95,77,45,0.00,40.00,6,3,17,0.20
2013-2-14,49,46,34,47,42,33,96,87,69,0.00,40.00,2,1,8,0.12
2013-2-15,69,46,30,45,35,29,96,73,27,0.00,40.00,4,1,11,0.00
2013-2-16,61,44,30,43,31,19,96,67,26,0.00,40.00,6,2,19,0.00
2013-2-17,56,38,22,28,19,7,92,58,14,0.00,40.00,4,1,10,0.00
2013-2-18,61,40,25,32,23,12,93,62,15,0.00,40.00,7,2,18,0.00
2013-2-19,70,52,33,64,48,29,96,88,69,0.00,40.00,6,2,18,0.40
2013-2-20,64,47,34,45,32,23,96,64,23,0.00,40.00,4,1,11,0.01
2013-2-21,73,52,33,56,41,32,96,72,35,0.00,40.00,5,2,11,0.00
2013-2-22,66,64,59,65,63,56,98,97,91,0.00,40.00,7,3,12,4.73
2013-2-23,76,68,63,69,66,62,98,93,79,0.00,40.00,6,2,17,2.62
2013-2-24,76,63,56,62,57,54,97,84,47,0.00,40.00,4,2,11,0.54
2013-2-25,61,58,56,60,57,55,97,95,91,0.00,40.00,8,5,18,3.94
2013-2-26,73,64,50,67,55,44,97,76,45,0.00,40.00,9,5,21,0.59
2013-2-27,64,53,44,48,43,37,96,72,37,0.00,40.00,4,1,12,1.91
2013-2-28,68,52,40,46,37,29,97,63,24,0.00,40.00,5,2,12,0.00
2013-3-1,52,46,35,39,33,29,94,62,44,0.00,40.00,3,2,10,0.00
2013-3-2,54,41,32,33,28,25,95,65,33,0.00,40.00,6,2,18,0.00
2013-3-3,54,41,30,29,27,23,91,59,31,0.00,40.00,5,2,15,0.00
2013-3-4,68,45,27,38,29,20,94,63,21,0.00,40.00,4,2,9,0.00
2013-3-5,76,60,40,59,52,38,97,78,56,0.00,40.00,7,3,18,0.13
2013-3-6,61,48,36,53,32,25,95,60,27,0.00,40.00,5,2,15,0.13
2013-3-7,68,45,30,40,32,28,95,67,25,0.00,40.00,4,1,8,0.00
2013-3-8,75,51,31,43,34,25,95,64,16,0.00,40.00,3,1,8,0.00
2013-3-9,73,54,38,46,39,28,95,65,20,0.00,40.00,6,2,14,0.00
2013-3-10,75,61,46,51,47,41,93,63,36,0.00,40.00,9,4,19,0.00
2013-3-11,72,61,49,63,55,48,95,84,62,0.00,40.00,7,3,18,0.28
2013-3-12,66,55,45,63,45,38,96,73,35,0.00,40.00,4,2,12,1.04
2013-3-13,71,53,35,41,33,27,94,56,21,0.00,40.00,5,2,14,0.01
2013-3-14,66,46,32,32,27,20,91,55,18,0.00,40.00,5,2,11,0.00
2013-3-15,77,52,33,41,34,30,95,60,21,0.00,40.00,5,2,12,0.00
2013-3-16,80,59,42,56,47,41,96,69,36,0.00,40.00,6,2,14,0.00
2013-3-17,72,59,50,61,56,49,97,90,67,0.00,40.00,6,2,18,0.48
2013-3-18,81,68,60,66,63,59,97,84,55,0.00,40.00,6,3,13,0.39
2013-3-19,79,65,57,64,59,56,97,82,49,0.00,40.00,8,2,15,0.83
2013-3-20,72,59,45,56,42,34,96,57,26,0.00,40.00,6,2,11,0.02
2013-3-21,69,50,36,40,32,21,92,59,16,0.00,40.00,4,1,13,0.02
2013-3-22,67,55,40,49,33,23,93,50,22,0.00,40.00,7,3,13,0.00
2013-3-23,65,60,56,64,53,35,97,80,38,0.00,40.00,5,3,11,2.70
2013-3-24,85,73,62,70,64,54,98,77,39,0.00,40.00,8,4,17,2.05
2013-3-25,65,54,41,54,30,22,75,45,20,0.00,40.00,6,3,17,0.01
2013-3-26,58,45,32,32,26,22,81,51,29,0.00,40.00,6,2,14,0.00
2013-3-27,63,45,30,31,28,24,91,58,22,0.00,40.00,4,1,9,0.00
2013-3-28,71,61,44,41,33,27,90,42,20,0.00,40.00,4,2,9,0.00
2013-3-29,77,56,37,49,38,33,96,61,21,0.00,40.00,6,2,13,0.00
2013-3-30,76,58,40,54,46,39,96,70,38,0.00,40.00,6,2,14,0.00
2013-3-31,80,66,53,63,56,-100,97,76,52,0.00,40.00,7,2,19,0.00
2013-4-1,86,68,56,64,57,52,97,73,34,0.00,40.00,5,2,13,0.00
2013-4-2,84,63,45,52,46,40,96,64,22,0.00,40.00,5,1,11,0.00
2013-4-3,67,59,49,64,56,47,96,90,76,0.00,40.00,8,2,15,0.20
2013-4-4,80,68,62,66,63,59,95,84,60,0.00,40.00,6,3,13,0.15
2013-4-5,64,57,46,59,52,44,95,84,61,0.00,40.00,3,2,11,0.01
2013-4-6,79,58,38,51,43,37,96,67,26,0.00,40.00,6,2,11,0.00
2013-4-7,80,63,47,59,53,46,96,74,43,0.00,40.00,6,2,13,0.00
2013-4-8,82,65,51,62,56,50,97,77,48,0.00,40.00,7,3,14,0.00
2013-4-9,83,66,51,64,57,50,97,76,43,0.00,40.00,6,2,13,0.00
2013-4-10,83,69,55,63,58,54,97,72,41,0.00,40.00,6,2,11,0.00
2013-4-11,76,68,56,71,65,55,97,90,73,0.00,40.00,6,3,14,0.25
2013-4-12,82,72,56,71,64,52,96,78,40,0.00,40.00,5,2,11,0.28
2013-4-13,83,64,47,56,48,42,95,64,24,0.00,40.00,5,1,9,0.00
2013-4-14,65,60,56,58,55,48,96,84,57,0.00,40.00,9,3,17,1.33
2013-4-15,83,68,56,71,63,55,97,84,61,0.00,40.00,4,1,6,0.18
2013-4-16,90,75,65,68,64,62,96,73,43,0.00,40.00,6,3,11,0.00
2013-4-17,86,74,66,66,63,61,93,69,44,0.00,40.00,5,3,9,0.00
2013-4-18,82,72,63,66,63,60,95,74,53,0.00,40.00,6,3,11,0.00
2013-4-19,83,68,52,73,64,50,97,88,72,0.00,40.00,7,2,16,0.45
2013-4-20,72,57,46,50,44,36,96,67,27,0.00,40.00,4,2,10,0.32
2013-4-21,78,61,42,59,49,41,96,70,42,0.00,40.00,7,3,17,0.01
2013-4-22,72,65,61,60,58,56,93,79,63,0.00,40.00,7,4,14,0.00
2013-4-23,80,65,49,62,56,49,100,77,48,0.00,40.00,5,2,12,0.00
2013-4-24,83,68,52,66,60,52,100,80,51,0.00,40.00,5,2,11,0.00
2013-4-25,84,69,59,68,64,59,100,85,55,0.00,40.00,4,1,10,0.05
2013-4-26,88,69,55,59,48,41,98,54,23,0.00,40.00,5,2,9,0.04
2013-4-27,82,67,56,66,60,54,99,80,54,0.00,40.00,8,2,14,0.00
2013-4-28,84,71,57,67,60,-100,99,76,45,0.00,40.00,7,3,15,0.00
2013-4-29,80,66,59,69,64,59,100,93,63,0.00,40.00,5,2,11,1.11
2013-4-30,86,71,60,72,66,60,100,85,50,0.00,40.00,5,1,9,0.18
2013-5-1,71,68,65,68,65,62,99,89,79,0.00,40.00,7,4,14,0.42
2013-5-2,79,69,63,67,64,61,98,84,65,0.00,40.00,9,5,19,0.32
2013-5-3,69,66,64,66,63,60,98,92,79,0.00,40.00,10,4,20,0.39
2013-5-4,68,62,53,65,59,50,99,89,81,0.00,40.00,4,2,9,0.07
2013-5-5,76,59,43,62,50,43,100,76,41,0.00,40.00,6,2,14,0.03
2013-5-6,71,58,41,52,46,40,99,70,42,0.00,40.00,5,2,15,0.02
2013-5-7,80,64,49,58,54,49,99,75,39,0.00,40.00,5,1,11,0.00
2013-5-8,84,67,51,61,57,51,99,74,43,0.00,40.00,5,1,11,0.00
2013-5-9,86,70,58,67,61,55,100,77,35,0.00,40.00,4,1,11,0.00
2013-5-10,87,68,54,66,56,-100,99,73,38,0.00,40.00,4,2,11,0.00
2013-5-11,83,70,60,71,66,60,100,89,66,0.00,40.00,5,2,10,0.02
2013-5-12,84,71,61,67,59,-100,100,74,39,0.00,40.00,3,1,8,0.01
2013-5-13,80,65,50,58,44,36,95,52,22,0.00,40.00,5,2,12,0.00
2013-5-14,84,63,43,55,46,41,98,62,28,0.00,40.00,4,2,9,0.00
2013-5-15,89,66,49,61,53,48,98,72,31,0.00,40.00,5,1,11,0.00
2013-5-16,87,62,55,64,38,-100,99,74,45,0.00,40.00,5,1,12,0.00
2013-5-17,90,70,56,69,52,-100,100,74,38,0.00,40.00,4,2,10,0.00
2013-5-18,87,71,56,70,63,56,99,78,46,0.00,40.00,5,1,9,0.04
2013-5-19,91,75,59,71,65,59,99,75,39,0.00,40.00,3,1,7,0.04
2013-5-20,93,78,65,70,67,59,99,73,33,0.00,40.00,3,1,8,0.00
2013-5-21,91,78,62,72,67,62,99,74,45,0.00,40.00,4,2,12,0.00
2013-5-22,92,76,62,71,67,62,99,76,41,0.00,40.00,4,2,9,0.00
2013-5-23,95,79,65,72,65,58,99,69,32,0.00,40.00,5,2,12,0.00
2013-5-24,93,77,62,70,61,49,99,65,30,0.00,40.00,4,2,12,0.00
2013-5-25,90,71,52,62,55,51,97,63,29,0.00,40.00,6,2,13,0.00
2013-5-26,92,72,54,67,59,53,99,70,29,0.00,40.00,4,2,9,0.00
2013-5-27,92,73,57,67,60,51,99,70,26,0.00,40.00,6,2,10,0.00
2013-5-28,89,74,60,68,62,58,97,69,36,0.00,40.00,6,3,13,0.00
2013-5-29,90,78,68,71,68,64,94,72,47,0.00,40.00,7,4,15,0.00
2013-5-30,89,78,70,73,70,65,98,78,48,0.00,40.00,6,4,11,0.18
2013-5-31,90,79,70,72,69,67,97,75,50,0.00,40.00,6,4,14,0.18
2013-6-1,91,80,70,72,69,67,93,71,45,0.00,40.00,6,4,14,0.00
2013-6-2,93,80,68,74,69,-100,98,78,46,0.00,40.00,5,2,11,0.00
2013-6-3,93,78,68,75,72,67,98,83,45,0.00,40.00,6,1,11,0.05
2013-6-4,92,78,68,78,73,68,99,85,58,0.00,40.00,7,2,11,0.25
2013-6-5,82,76,71,76,73,71,99,92,79,0.00,40.00,4,2,9,0.44
2013-6-6,73,71,70,73,70,69,99,97,93,0.00,40.00,7,2,16,1.26
2013-6-7,91,78,66,77,70,66,100,81,51,0.00,40.00,6,2,14,0.28
2013-6-8,90,78,67,75,71,67,99,81,53,0.00,40.00,4,2,11,0.13
2013-6-9,86,78,71,76,73,68,99,87,69,0.00,40.00,4,2,14,0.03
2013-6-10,90,80,71,77,73,70,99,82,56,0.00,40.00,6,2,11,0.12
2013-6-11,95,79,69,77,72,69,99,84,45,0.00,40.00,3,1,7,0.09
2013-6-12,98,83,68,78,72,68,99,76,43,0.00,40.00,3,1,7,0.09
2013-6-13,98,85,74,78,75,72,99,75,43,0.00,40.00,5,2,13,0.00
2013-6-14,96,84,74,78,74,71,95,75,48,0.00,40.00,3,2,8,0.00
2013-6-15,92,81,71,73,70,66,97,72,47,0.00,40.00,8,4,15,0.00
2013-6-16,93,81,71,76,72,67,94,75,53,0.00,40.00,5,3,15,0.00
2013-6-17,93,80,68,75,70,66,98,75,47,0.00,40.00,4,2,11,0.00
2013-6-18,95,81,66,76,70,65,98,73,40,0.00,40.00,5,2,13,0.04
2013-6-19,97,82,71,75,71,67,98,73,40,0.00,40.00,4,2,11,0.04
2013-6-20,93,79,68,73,70,67,98,78,45,0.00,40.00,7,2,17,0.00
2013-6-22,88,82,73,74,72,71,93,73,59,0.00,40.00,6,3,12,0.01
2013-6-23,89,77,69,77,73,68,99,87,59,0.00,40.00,9,2,17,1.31
2013-6-24,89,78,69,76,73,69,99,85,64,0.00,40.00,5,2,10,0.19
2013-6-25,92,79,69,77,72,69,99,83,51,0.00,40.00,6,2,10,0.00
2013-6-26,94,81,69,76,72,68,98,76,47,0.00,40.00,4,2,11,0.00
2013-6-27,94,82,69,75,72,68,98,77,47,0.00,40.00,4,2,11,0.00
2013-6-28,90,80,71,79,73,70,98,83,56,0.00,40.00,5,2,15,0.10
2013-6-29,86,76,70,76,72,69,98,90,68,0.00,40.00,5,2,9,0.59
2013-6-30,87,78,71,78,74,70,98,89,68,0.00,40.00,4,2,10,0.71
2013-7-1,89,78,68,77,73,68,99,86,62,0.00,40.00,3,1,7,0.32
2013-7-2,87,77,71,76,73,70,98,88,67,0.00,40.00,6,3,13,0.61
2013-7-3,81,75,72,77,73,70,98,95,84,0.00,40.00,9,3,21,1.93
2013-7-4,76,73,70,74,72,69,98,96,89,0.00,40.00,7,4,12,1.83
2013-7-5,86,76,69,76,72,68,98,90,68,0.00,40.00,11,3,22,0.68
2013-7-6,78,74,71,76,72,71,99,97,89,0.00,40.00,4,2,11,3.01
2013-7-7,89,77,69,78,73,69,99,89,63,0.00,40.00,5,2,11,0.39
2013-7-8,89,77,72,78,74,71,99,92,64,0.00,40.00,4,1,8,0.26
2013-7-9,94,80,70,77,72,69,99,79,46,0.00,40.00,3,1,8,0.01
2013-7-10,89,76,70,79,69,-100,99,84,67,0.00,40.00,1,0,4,0.15
2013-7-11,89,75,70,77,73,70,99,92,64,0.00,40.00,3,0,9,1.13
2013-7-12,87,76,68,77,73,67,99,91,71,0.00,40.00,3,0,8,0.99
2013-7-13,83,74,67,74,70,66,99,90,70,0.00,40.00,3,1,8,1.08
2013-7-14,89,79,73,74,73,71,98,83,59,0.00,40.00,6,4,14,0.01
2013-7-15,90,78,73,76,72,69,98,84,54,0.00,40.00,7,3,12,0.34
2013-7-16,91,84,76,75,74,70,92,71,60,0.00,40.00,6,3,10,0.36
2013-7-17,91,80,69,75,71,68,98,78,49,0.00,40.00,5,2,11,0.04
2013-7-18,92,81,71,75,72,68,98,76,45,0.00,40.00,6,2,11,0.00
2013-7-19,84,76,71,75,72,70,98,90,69,0.00,40.00,4,1,8,0.09
2013-7-20,86,75,72,77,71,-100,99,93,71,0.00,40.00,4,1,13,1.82
2013-7-21,92,80,70,78,73,70,99,81,57,0.00,40.00,5,2,12,0.01
2013-7-22,83,74,70,78,72,69,98,95,80,0.00,40.00,4,1,9,0.86
2013-7-23,89,77,71,80,74,70,98,90,70,0.00,40.00,4,2,12,0.43
2013-7-24,91,76,69,79,72,68,98,91,66,0.00,40.00,4,2,13,0.80
2013-7-25,91,78,70,77,74,70,99,87,64,0.00,40.00,4,1,10,0.69
2013-7-26,97,82,70,77,73,68,99,76,41,0.00,40.00,0,0,4,0.22
2013-7-27,92,80,71,78,73,68,98,82,52,0.00,40.00,4,1,8,0.00
2013-7-28,89,79,72,76,73,71,98,84,58,0.00,40.00,4,1,8,0.14
2013-7-29,92,80,71,79,74,70,98,84,56,0.00,40.00,5,1,11,0.24
2013-7-30,97,81,71,79,74,70,98,84,48,0.00,40.00,1,0,2,0.95
2013-7-31,94,80,71,78,73,70,99,81,49,0.00,40.00,0,0,5,0.95
2013-8-1,92,80,72,77,74,71,98,85,58,0.00,40.00,3,1,7,0.01
2013-8-2,94,80,71,77,73,70,98,82,49,0.00,40.00,1,0,5,0.01
2013-8-3,93,80,71,79,74,70,98,84,58,0.00,40.00,4,1,15,0.00
2013-8-4,97,83,73,80,75,72,98,80,45,0.00,40.00,4,1,9,0.03
2013-8-5,93,81,72,80,75,71,98,84,59,0.00,40.00,2,0,7,0.03
2013-8-6,97,83,71,76,72,68,98,74,42,0.00,40.00,3,1,10,0.00
2013-8-7,90,79,73,79,75,72,97,87,63,0.00,40.00,4,2,9,0.77
2013-8-8,88,79,73,79,75,72,98,89,70,0.00,40.00,5,2,9,0.10
2013-8-9,91,81,74,80,75,71,98,83,56,0.00,40.00,4,1,12,0.15
2013-8-10,86,79,73,78,75,72,98,89,75,0.00,40.00,5,1,11,1.39
2013-8-11,95,79,72,78,74,71,98,86,53,0.00,40.00,2,0,6,0.33
2013-8-12,96,82,70,78,72,69,98,77,44,0.00,40.00,0,0,3,0.33
2013-8-13,91,79,70,79,73,-100,98,85,63,0.00,40.00,0,0,8,0.00
2013-8-14,91,79,72,79,73,-100,98,87,61,0.00,40.00,1,0,4,0.07
2013-8-15,92,75,72,78,68,-100,98,86,63,0.00,40.00,4,1,10,1.01
2013-8-16,84,74,71,76,70,-100,98,91,76,0.00,40.00,3,1,9,0.85
2013-8-17,84,74,71,77,72,70,98,94,75,0.00,40.00,5,2,12,1.00
2013-8-18,86,76,70,78,72,-100,98,90,72,0.00,40.00,6,2,13,0.32
2013-8-19,88,75,72,77,68,-100,98,89,69,0.00,40.00,4,1,7,0.01
2013-8-20,89,78,72,76,74,71,98,89,62,0.00,40.00,4,1,13,0.18
2013-8-21,94,77,69,76,72,68,98,87,54,0.00,40.00,4,1,9,0.61
2013-8-22,81,74,71,77,72,70,98,95,86,0.00,40.00,5,1,7,0.48
2013-8-23,88,76,69,77,72,68,98,88,64,0.00,40.00,5,1,9,0.02
2013-8-24,87,77,72,76,73,71,98,88,67,0.00,40.00,5,1,9,0.02
2013-8-25,87,78,73,74,70,-100,97,81,63,0.00,40.00,7,3,13,0.01
2013-8-26,89,78,69,70,68,65,96,74,49,0.00,40.00,7,2,12,0.00
2013-8-27,91,77,68,74,70,67,98,81,50,0.00,40.00,4,2,8,0.00
2013-8-28,94,84,73,76,73,68,97,73,43,0.00,40.00,4,1,9,0.00
2013-8-29,96,80,68,74,69,67,98,75,41,0.00,40.00,4,1,9,0.00
2013-8-30,95,82,71,78,73,70,98,78,51,0.00,40.00,3,1,9,0.04
2013-8-31,89,78,70,77,74,69,98,87,63,0.00,40.00,5,1,17,0.06
2013-9-1,90,79,72,78,72,-100,98,84,60,0.00,40.00,5,1,10,0.11
2013-9-2,90,77,71,79,74,70,98,91,66,0.00,40.00,3,1,8,0.13
2013-9-3,93,79,69,78,73,68,98,85,56,0.00,40.00,3,1,7,0.06
2013-9-4,93,79,69,76,72,68,98,84,53,0.00,40.00,1,0,3,0.57
2013-9-5,96,80,69,78,73,68,98,81,46,0.00,40.00,3,0,7,0.53
2013-9-6,95,80,71,77,73,70,98,80,49,0.00,40.00,3,0,8,0.00
2013-9-7,92,78,68,71,69,67,98,77,46,0.00,40.00,6,2,12,0.00
2013-9-8,94,77,65,76,66,-100,98,75,39,0.00,40.00,4,1,9,0.00
2013-9-9,92,78,66,77,70,65,98,81,50,0.00,40.00,3,1,6,0.00
2013-9-10,91,80,67,73,69,65,97,74,42,0.00,40.00,7,2,12,0.00
2013-9-11,92,79,66,73,69,65,97,73,43,0.00,40.00,6,3,13,0.00
2013-9-12,93,78,68,73,69,66,98,78,43,0.00,40.00,5,1,12,0.00
2013-9-13,94,79,66,74,69,65,98,76,40,0.00,40.00,3,1,7,0.00
2013-9-14,94,78,67,74,70,66,98,79,47,0.00,40.00,4,1,8,0.00
2013-9-15,95,78,69,73,68,-100,97,78,46,0.00,40.00,5,2,17,0.00
2013-9-16,94,80,70,74,71,69,97,78,46,0.00,40.00,5,2,11,0.00
2013-9-17,93,80,68,74,70,67,98,76,47,0.00,40.00,6,2,12,0.03
2013-9-18,76,73,71,70,69,67,92,89,83,0.00,40.00,5,3,10,0.03
2013-9-19,89,77,66,70,67,64,96,74,48,0.00,40.00,6,3,11,0.00
2013-9-20,90,77,68,72,68,64,97,76,46,0.00,40.00,6,3,12,0.00
2013-9-21,87,74,66,76,70,65,98,91,65,0.00,40.00,4,1,9,0.25
2013-9-22,81,74,72,75,71,-100,98,93,81,0.00,40.00,3,1,7,0.44
2013-9-23,87,77,72,74,72,71,97,88,65,0.00,40.00,5,3,11,0.09
2013-9-24,83,78,74,75,74,72,95,87,75,0.00,40.00,5,3,9,0.01
2013-9-25,89,77,68,77,72,67,98,88,66,0.00,40.00,3,0,9,2.73
2013-9-26,83,74,67,73,69,66,98,87,62,0.00,40.00,4,1,10,1.99
2013-9-27,84,71,60,66,61,57,98,76,41,0.00,40.00,6,2,14,0.00
2013-9-28,83,71,61,66,62,59,96,76,56,0.00,40.00,8,3,14,0.00
2013-9-29,85,71,61,69,62,-100,95,77,49,0.00,40.00,5,2,10,0.00
2013-9-30,74,70,65,72,67,64,97,91,81,0.00,40.00,5,2,9,0.10
2013-10-1,76,73,67,72,70,65,94,89,77,0.00,40.00,3,1,4,0.00
2013-10-2,86,76,67,69,66,64,96,74,50,0.00,40.00,5,2,12,0.00
2013-10-3,87,74,65,71,67,63,97,81,51,0.00,40.00,5,2,10,0.00
2013-10-4,90,77,68,74,70,67,98,83,54,0.00,40.00,5,2,9,0.00
2013-10-5,91,76,68,73,69,67,98,81,47,0.00,40.00,5,2,10,0.00
2013-10-6,81,74,68,74,71,67,98,92,77,0.00,40.00,4,2,8,1.11
2013-10-7,89,77,72,75,72,65,98,85,62,0.00,40.00,3,2,8,0.08
2013-10-8,88,74,63,71,65,58,84,74,54,0.00,40.00,4,2,8,0.01
2013-10-9,74,68,60,67,62,59,97,82,69,0.00,40.00,6,3,12,0.00
2013-10-10,86,70,56,64,59,55,98,74,41,0.00,40.00,3,1,6,0.00
2013-10-11,86,69,56,66,59,55,98,77,39,0.00,40.00,3,1,10,0.00
2013-10-12,88,68,56,65,60,55,98,79,38,0.00,40.00,3,1,10,0.00
2013-10-13,86,69,56,64,58,-100,98,75,40,0.00,40.00,5,1,11,0.00
2013-10-14,81,69,61,65,62,60,98,80,52,0.00,40.00,4,2,10,0.00
2013-10-15,83,70,61,67,64,60,98,82,55,0.00,40.00,4,2,11,0.00
2013-10-16,85,72,64,66,64,63,97,79,48,0.00,40.00,3,1,6,0.00
2013-10-17,88,72,59,69,64,58,98,82,47,0.00,40.00,3,1,9,0.00
2013-10-18,83,72,65,74,69,64,98,91,70,0.00,40.00,3,1,10,0.12
2013-10-19,76,70,66,72,69,65,98,96,87,0.00,40.00,3,1,6,0.15
2013-10-20,78,68,61,66,60,-100,98,81,59,0.00,40.00,3,1,9,0.01
2013-10-21,79,70,63,69,66,62,97,87,68,0.00,40.00,4,1,7,0.00
2013-10-22,72,69,65,70,67,64,98,96,93,0.00,40.00,3,1,5,0.17
2013-10-23,78,63,50,64,54,46,98,77,35,0.00,40.00,4,1,12,0.02
2013-10-24,78,58,43,55,45,36,97,71,25,0.00,40.00,4,1,9,0.01
2013-10-25,73,56,45,50,45,38,98,72,36,0.00,40.00,5,1,10,0.00
2013-10-26,72,52,37,51,42,36,97,73,32,0.00,40.00,5,1,11,0.00
2013-10-27,77,56,40,57,45,-100,98,75,36,0.00,40.00,4,1,7,0.00
2013-10-28,81,61,49,59,51,-100,98,77,37,0.00,40.00,3,1,7,0.00
2013-10-29,82,63,49,61,54,48,98,79,39,0.00,40.00,6,1,13,0.00
2013-10-30,84,64,51,64,57,50,98,82,43,0.00,40.00,5,2,11,0.00
2013-10-31,82,69,59,69,64,58,97,85,61,0.00,40.00,5,3,18,0.00
2013-11-1,83,73,64,74,70,63,98,92,72,0.00,40.00,6,2,14,0.37
2013-11-2,78,65,54,69,57,48,98,79,35,0.00,40.00,4,1,10,0.35
2013-11-3,71,56,44,49,42,-100,97,65,31,0.00,40.00,5,2,14,0.00
2013-11-4,75,60,41,55,49,40,98,69,47,0.00,40.00,7,4,14,0.00
2013-11-5,75,64,54,59,53,45,79,68,53,0.00,40.00,7,4,16,0.00
2013-11-6,78,68,62,65,62,56,96,80,63,0.00,40.00,6,4,11,0.00
2013-11-7,82,67,54,67,61,46,98,84,58,0.00,40.00,4,1,9,0.00
2013-11-8,69,55,43,46,40,36,95,61,37,0.00,40.00,5,3,13,0.00
2013-11-9,77,58,41,60,48,-100,97,75,48,0.00,40.00,6,2,12,0.00
2013-11-10,78,62,51,62,55,50,98,81,48,0.00,40.00,5,1,11,0.00
2013-11-11,78,58,43,57,49,42,98,77,37,0.00,40.00,4,1,6,0.00
2013-11-12,76,58,46,60,49,39,98,75,36,0.00,40.00,5,1,10,0.00
2013-11-13,56,45,33,39,25,18,80,47,25,0.00,40.00,6,4,18,0.00
2013-11-14,70,50,33,50,38,24,91,63,45,0.00,40.00,5,2,10,0.00
2013-11-15,63,59,55,60,55,48,98,89,73,0.00,40.00,6,3,10,0.03
2013-11-16,76,64,54,67,59,-100,98,86,63,0.00,40.00,6,2,11,0.01
2013-11-17,76,71,66,71,68,65,97,91,80,0.00,40.00,5,3,14,0.06
2013-11-18,75,71,62,73,70,58,98,97,88,0.00,40.00,2,1,6,0.14
2013-11-19,70,57,45,58,45,40,95,67,38,0.00,40.00,4,2,12,0.02
2013-11-20,72,60,51,58,51,44,82,72,61,0.00,40.00,6,4,12,0.00
2013-11-21,77,64,55,64,58,52,97,82,63,0.00,40.00,5,3,11,0.07
2013-11-22,79,67,60,68,64,59,98,89,66,0.00,40.00,4,2,9,0.04
2013-11-23,75,65,58,67,60,-100,98,87,74,0.00,40.00,3,2,9,0.00
2013-11-24,61,52,44,52,34,29,77,50,34,0.00,40.00,6,3,14,0.00
2013-11-25,59,51,43,52,39,28,80,63,52,0.00,40.00,7,5,16,0.00
2013-11-26,75,65,58,72,63,52,97,93,80,0.00,40.00,12,5,22,2.54
2013-11-27,60,44,31,59,40,30,96,84,54,0.00,40.00,5,3,15,0.04
2013-11-28,52,37,29,36,28,24,96,73,38,0.00,40.00,4,2,11,0.01
2013-11-29,63,44,30,45,36,29,97,78,42,0.00,40.00,6,1,10,0.00
2013-11-30,71,51,36,54,43,-100,97,79,55,0.00,40.00,5,2,10,0.00
2013-12-1,68,53,44,56,48,43,97,85,62,0.00,40.00,4,1,6,0.00
2013-12-2,71,56,47,56,50,46,98,84,44,0.00,40.00,3,1,8,0.00
2013-12-3,76,62,47,67,57,46,98,88,62,0.00,40.00,5,2,11,0.00
2013-12-4,79,67,59,68,64,58,98,90,68,0.00,40.00,4,2,10,0.00
2013-12-5,82,71,63,71,67,62,98,90,65,0.00,40.00,5,3,13,0.01
2013-12-6,81,69,58,69,66,57,99,90,68,0.00,40.00,6,2,13,0.01
2013-12-7,80,70,63,72,66,-100,98,90,74,0.00,40.00,4,2,10,0.00
2013-12-8,80,67,61,68,64,60,98,89,63,0.00,40.00,6,2,10,0.01
2013-12-9,80,71,62,71,68,61,99,91,69,0.00,40.00,6,2,15,0.03
2013-12-10,76,62,46,72,58,40,97,84,64,0.00,40.00,4,3,12,0.17
2013-12-11,65,50,40,54,43,34,97,77,60,0.00,40.00,5,2,10,0.01
2013-12-12,64,49,35,45,36,25,97,68,25,0.00,40.00,4,2,14,0.00
2013-12-13,64,46,30,52,38,27,97,79,50,0.00,40.00,5,1,8,0.00
2013-12-14,70,61,51,67,58,-100,99,92,86,0.00,40.00,5,3,13,2.15
2013-12-15,66,52,39,66,48,36,99,90,73,0.00,40.00,4,2,12,0.30
2013-12-16,62,43,33,41,35,32,97,79,39,0.00,40.00,3,1,8,0.01
2013-12-17,69,45,31,43,35,30,97,76,26,0.00,40.00,3,1,7,0.00
2013-12-18,65,46,35,42,36,31,98,74,28,0.00,40.00,5,1,9,0.00
2013-12-19,68,45,30,41,34,29,97,73,29,0.00,40.00,5,1,10,0.00
2013-12-20,77,55,37,62,50,36,98,86,57,0.00,40.00,5,1,11,0.00
2013-12-21,76,68,57,69,63,-100,98,87,76,0.00,40.00,6,4,15,0.00
2013-12-22,80,73,69,71,70,68,95,89,75,0.00,40.00,7,4,16,0.00
2013-12-23,73,62,50,71,60,48,98,95,91,0.00,40.00,5,2,13,1.21
2013-12-24,58,46,33,48,36,31,96,72,36,0.00,40.00,4,2,11,0.01
2013-12-25,60,45,32,46,37,28,96,74,55,0.00,40.00,5,2,12,0.00
2013-12-26,53,49,44,46,44,42,95,85,74,0.00,40.00,4,2,10,0.07
2013-12-27,60,54,49,51,47,44,86,76,68,0.00,40.00,5,3,9,0.02
2013-12-28,67,57,51,66,50,-100,97,79,69,0.00,40.00,7,4,12,0.07
2013-12-29,70,63,52,67,58,48,97,85,61,0.00,40.00,6,3,18,0.78
2013-12-30,65,52,40,53,46,39,98,82,49,0.00,40.00,3,1,6,0.07
2013-12-31,53,52,49,51,48,45,96,87,75,0.00,40.00,2,1,5,0.00
2014-1-1,54,51,47,53,48,44,97,92,85,0.00,40.00,3,2,7,0.12
2014-1-2,60,54,43,59,53,32,98,94,64,0.00,40.00,4,1,10,0.44